sensor_id;sensor_type;location;lat;lon;timestamp;P1;durP1;ratioP1;P2;durP2;ratioP2
13085;SDS011;6609;49.882;8.664;2024-03-23T01:03:40;10.17;;;5.90;;
13085;SDS011;6609;49.882;8.664;2024-03-23T01:06:07;8.07;;;5.97;;
13085;SDS011;6609;49.882;8.664;2024-03-23T01:08:34;10.33;;;7.03;;
13085;SDS011;6609;49.882;8.664;2024-03-23T01:11:01;12.17;;;7.23;;
13085;SDS011;6609;49.882;8.664;2024-03-23T01:13:28;9.50;;;5.97;;
13085;SDS011;6609;49.882;8.664;2024-03-23T01:15:54;11.03;;;6.67;;
13085;SDS011;6609;49.882;8.664;2024-03-23T01:18:23;9.20;;;6.90;;
13085;SDS011;6609;49.882;8.664;2024-03-23T01:20:51;10.07;;;6.17;;
13085;SDS011;6609;49.882;8.664;2024-03-23T01:23:18;15.30;;;7.50;;
13085;SDS011;6609;49.882;8.664;2024-03-23T01:25:50;9.23;;;6.90;;
13085;SDS011;6609;49.882;8.664;2024-03-23T01:28:18;14.10;;;10.07;;
13085;SDS011;6609;49.882;8.664;2024-03-23T01:30:44;13.40;;;9.00;;
13085;SDS011;6609;49.882;8.664;2024-03-23T01:33:11;16.03;;;11.13;;
13085;SDS011;6609;49.882;8.664;2024-03-23T01:35:38;16.47;;;11.63;;
13085;SDS011;6609;49.882;8.664;2024-03-23T01:38:05;17.60;;;11.40;;
13085;SDS011;6609;49.882;8.664;2024-03-23T01:40:31;14.93;;;10.53;;
13085;SDS011;6609;49.882;8.664;2024-03-23T01:42:58;16.13;;;10.60;;
13085;SDS011;6609;49.882;8.664;2024-03-23T01:45:24;20.77;;;10.83;;
13085;SDS011;6609;49.882;8.664;2024-03-23T01:47:52;17.73;;;11.50;;
13085;SDS011;6609;49.882;8.664;2024-03-23T01:50:18;17.17;;;11.13;;
13085;SDS011;6609;49.882;8.664;2024-03-23T01:52:47;15.03;;;11.90;;
13085;SDS011;6609;49.882;8.664;2024-03-23T01:55:14;19.30;;;10.83;;
13085;SDS011;6609;49.882;8.664;2024-03-23T01:57:41;15.47;;;10.73;;
13085;SDS011;6609;49.882;8.664;2024-03-23T02:00:07;17.90;;;11.63;;
13085;SDS011;6609;49.882;8.664;2024-03-23T02:02:35;15.33;;;11.13;;
13085;SDS011;6609;49.882;8.664;2024-03-23T02:05:01;21.90;;;11.73;;
13085;SDS011;6609;49.882;8.664;2024-03-23T02:07:28;15.90;;;11.00;;
13085;SDS011;6609;49.882;8.664;2024-03-23T02:09:55;14.83;;;12.20;;
13085;SDS011;6609;49.882;8.664;2024-03-23T02:12:22;18.07;;;11.57;;
13085;SDS011;6609;49.882;8.664;2024-03-23T02:14:48;16.60;;;11.63;;
13085;SDS011;6609;49.882;8.664;2024-03-23T02:17:15;15.63;;;11.03;;
13085;SDS011;6609;49.882;8.664;2024-03-23T02:19:41;17.23;;;11.60;;
13085;SDS011;6609;49.882;8.664;2024-03-23T02:22:08;17.33;;;12.13;;
13085;SDS011;6609;49.882;8.664;2024-03-23T02:24:37;17.07;;;10.90;;
13085;SDS011;6609;49.882;8.664;2024-03-23T02:27:03;15.30;;;11.00;;
13085;SDS011;6609;49.882;8.664;2024-03-23T02:29:29;15.60;;;10.30;;
13085;SDS011;6609;49.882;8.664;2024-03-23T02:31:56;17.53;;;9.60;;
13085;SDS011;6609;49.882;8.664;2024-03-23T02:34:23;16.50;;;10.77;;
13085;SDS011;6609;49.882;8.664;2024-03-23T02:36:50;14.50;;;10.87;;
13085;SDS011;6609;49.882;8.664;2024-03-23T02:39:16;17.40;;;10.87;;
13085;SDS011;6609;49.882;8.664;2024-03-23T02:41:44;18.43;;;11.57;;
13085;SDS011;6609;49.882;8.664;2024-03-23T02:44:10;16.43;;;10.47;;
13085;SDS011;6609;49.882;8.664;2024-03-23T02:46:38;16.30;;;11.67;;
13085;SDS011;6609;49.882;8.664;2024-03-23T02:49:04;15.60;;;11.00;;
13085;SDS011;6609;49.882;8.664;2024-03-23T02:51:31;17.00;;;11.10;;
13085;SDS011;6609;49.882;8.664;2024-03-23T02:53:57;16.20;;;12.00;;
13085;SDS011;6609;49.882;8.664;2024-03-23T02:56:23;16.97;;;12.00;;
13085;SDS011;6609;49.882;8.664;2024-03-23T02:58:51;19.03;;;11.80;;
13085;SDS011;6609;49.882;8.664;2024-03-23T03:01:18;16.27;;;10.93;;
13085;SDS011;6609;49.882;8.664;2024-03-23T03:03:44;16.23;;;10.97;;
13085;SDS011;6609;49.882;8.664;2024-03-23T03:06:11;15.70;;;10.73;;
13085;SDS011;6609;49.882;8.664;2024-03-23T03:08:37;15.40;;;10.70;;
13085;SDS011;6609;49.882;8.664;2024-03-23T03:11:04;13.40;;;10.23;;
13085;SDS011;6609;49.882;8.664;2024-03-23T03:13:30;16.33;;;11.30;;
13085;SDS011;6609;49.882;8.664;2024-03-23T03:15:58;17.83;;;12.03;;
13085;SDS011;6609;49.882;8.664;2024-03-23T03:18:24;15.07;;;10.63;;
13085;SDS011;6609;49.882;8.664;2024-03-23T03:20:53;17.57;;;11.63;;
13085;SDS011;6609;49.882;8.664;2024-03-23T03:23:19;16.77;;;11.53;;
13085;SDS011;6609;49.882;8.664;2024-03-23T03:25:46;17.63;;;11.10;;
13085;SDS011;6609;49.882;8.664;2024-03-23T03:28:12;14.60;;;10.33;;
13085;SDS011;6609;49.882;8.664;2024-03-23T03:30:39;19.07;;;11.13;;
13085;SDS011;6609;49.882;8.664;2024-03-23T03:33:06;14.30;;;10.80;;
13085;SDS011;6609;49.882;8.664;2024-03-23T03:35:33;17.70;;;12.43;;
13085;SDS011;6609;49.882;8.664;2024-03-23T03:37:59;14.80;;;11.33;;
13085;SDS011;6609;49.882;8.664;2024-03-23T03:40:26;18.10;;;11.40;;
13085;SDS011;6609;49.882;8.664;2024-03-23T03:42:52;21.33;;;12.10;;
13085;SDS011;6609;49.882;8.664;2024-03-23T03:45:19;16.47;;;10.73;;
13085;SDS011;6609;49.882;8.664;2024-03-23T03:47:45;17.00;;;11.40;;
13085;SDS011;6609;49.882;8.664;2024-03-23T03:50:13;15.13;;;10.47;;
13085;SDS011;6609;49.882;8.664;2024-03-23T03:52:39;17.47;;;12.07;;
13085;SDS011;6609;49.882;8.664;2024-03-23T03:55:12;15.97;;;10.47;;
13085;SDS011;6609;49.882;8.664;2024-03-23T03:57:38;20.47;;;12.57;;
13085;SDS011;6609;49.882;8.664;2024-03-23T04:00:05;20.10;;;12.70;;
13085;SDS011;6609;49.882;8.664;2024-03-23T04:02:32;22.03;;;12.00;;
13085;SDS011;6609;49.882;8.664;2024-03-23T04:04:59;23.37;;;12.47;;
13085;SDS011;6609;49.882;8.664;2024-03-23T04:07:26;23.60;;;13.17;;
13085;SDS011;6609;49.882;8.664;2024-03-23T04:09:53;22.90;;;13.37;;
13085;SDS011;6609;49.882;8.664;2024-03-23T04:12:19;24.03;;;13.70;;
13085;SDS011;6609;49.882;8.664;2024-03-23T04:14:46;24.50;;;13.43;;
13085;SDS011;6609;49.882;8.664;2024-03-23T04:17:12;22.23;;;13.03;;
13085;SDS011;6609;49.882;8.664;2024-03-23T04:19:39;24.73;;;13.50;;
13085;SDS011;6609;49.882;8.664;2024-03-23T04:22:06;20.60;;;12.60;;
13085;SDS011;6609;49.882;8.664;2024-03-23T04:24:34;22.00;;;13.10;;
13085;SDS011;6609;49.882;8.664;2024-03-23T04:27:00;20.50;;;13.07;;
13085;SDS011;6609;49.882;8.664;2024-03-23T04:29:28;23.50;;;13.53;;
13085;SDS011;6609;49.882;8.664;2024-03-23T04:31:54;20.53;;;11.17;;
13085;SDS011;6609;49.882;8.664;2024-03-23T04:34:21;30.97;;;13.83;;
13085;SDS011;6609;49.882;8.664;2024-03-23T04:36:48;22.67;;;13.00;;
13085;SDS011;6609;49.882;8.664;2024-03-23T04:39:15;23.60;;;14.27;;
13085;SDS011;6609;49.882;8.664;2024-03-23T04:41:43;24.20;;;14.87;;
13085;SDS011;6609;49.882;8.664;2024-03-23T06:48:50;5.50;;;3.10;;
13085;SDS011;6609;49.882;8.664;2024-03-23T06:51:17;6.00;;;2.60;;
13085;SDS011;6609;49.882;8.664;2024-03-23T06:53:43;6.23;;;2.57;;
13085;SDS011;6609;49.882;8.664;2024-03-23T06:56:10;6.10;;;2.60;;
13085;SDS011;6609;49.882;8.664;2024-03-23T06:58:36;9.27;;;2.30;;
13085;SDS011;6609;49.882;8.664;2024-03-23T07:01:04;3.70;;;1.93;;
13085;SDS011;6609;49.882;8.664;2024-03-23T07:03:30;6.83;;;4.60;;
13085;SDS011;6609;49.882;8.664;2024-03-23T07:05:57;3.87;;;2.03;;
13085;SDS011;6609;49.882;8.664;2024-03-23T07:08:23;3.83;;;2.10;;
13085;SDS011;6609;49.882;8.664;2024-03-23T07:10:50;3.77;;;2.17;;
13085;SDS011;6609;49.882;8.664;2024-03-23T07:13:16;5.70;;;2.20;;
13085;SDS011;6609;49.882;8.664;2024-03-23T07:15:43;4.70;;;2.20;;
13085;SDS011;6609;49.882;8.664;2024-03-23T07:18:11;6.97;;;3.00;;
13085;SDS011;6609;49.882;8.664;2024-03-23T07:20:38;7.03;;;2.60;;
13085;SDS011;6609;49.882;8.664;2024-03-23T07:25:31;6.50;;;2.87;;
13085;SDS011;6609;49.882;8.664;2024-03-23T07:27:57;3.90;;;1.83;;
13085;SDS011;6609;49.882;8.664;2024-03-23T07:30:24;5.63;;;2.20;;
13085;SDS011;6609;49.882;8.664;2024-03-23T07:32:50;4.40;;;2.37;;
13085;SDS011;6609;49.882;8.664;2024-03-23T07:35:19;4.23;;;2.10;;
13085;SDS011;6609;49.882;8.664;2024-03-23T07:37:45;5.93;;;2.03;;
13085;SDS011;6609;49.882;8.664;2024-03-23T07:40:12;3.13;;;1.63;;
13085;SDS011;6609;49.882;8.664;2024-03-23T07:42:39;4.97;;;2.00;;
13085;SDS011;6609;49.882;8.664;2024-03-23T07:45:06;5.90;;;2.83;;
13085;SDS011;6609;49.882;8.664;2024-03-23T07:47:34;7.23;;;3.10;;
13085;SDS011;6609;49.882;8.664;2024-03-23T07:50:01;4.97;;;2.50;;
13085;SDS011;6609;49.882;8.664;2024-03-23T07:52:29;5.77;;;2.73;;
13085;SDS011;6609;49.882;8.664;2024-03-23T07:54:56;10.07;;;3.20;;
13085;SDS011;6609;49.882;8.664;2024-03-23T07:57:22;7.67;;;3.37;;
13085;SDS011;6609;49.882;8.664;2024-03-23T07:59:49;7.77;;;2.93;;
13085;SDS011;6609;49.882;8.664;2024-03-23T08:02:15;8.37;;;2.93;;
13085;SDS011;6609;49.882;8.664;2024-03-23T08:04:42;7.75;;;3.05;;
13085;SDS011;6609;49.882;8.664;2024-03-23T08:07:08;5.43;;;2.70;;
13085;SDS011;6609;49.882;8.664;2024-03-23T08:09:36;7.13;;;3.03;;
13085;SDS011;6609;49.882;8.664;2024-03-23T08:12:02;12.13;;;4.00;;
13085;SDS011;6609;49.882;8.664;2024-03-23T08:14:30;8.07;;;2.67;;
13085;SDS011;6609;49.882;8.664;2024-03-23T08:16:56;7.27;;;3.13;;
13085;SDS011;6609;49.882;8.664;2024-03-23T08:19:23;6.00;;;2.67;;
13085;SDS011;6609;49.882;8.664;2024-03-23T08:21:49;9.97;;;3.87;;
13085;SDS011;6609;49.882;8.664;2024-03-23T08:24:16;9.40;;;4.30;;
13085;SDS011;6609;49.882;8.664;2024-03-23T08:26:43;8.63;;;4.20;;
13085;SDS011;6609;49.882;8.664;2024-03-23T08:29:10;11.37;;;4.67;;
13085;SDS011;6609;49.882;8.664;2024-03-23T08:31:36;6.20;;;3.70;;
13085;SDS011;6609;49.882;8.664;2024-03-23T08:34:04;8.60;;;3.87;;
13085;SDS011;6609;49.882;8.664;2024-03-23T08:36:30;11.23;;;4.70;;
13085;SDS011;6609;49.882;8.664;2024-03-23T08:43:51;7.63;;;4.27;;
13085;SDS011;6609;49.882;8.664;2024-03-23T08:46:18;8.57;;;4.40;;
13085;SDS011;6609;49.882;8.664;2024-03-23T08:48:44;10.80;;;4.20;;
13085;SDS011;6609;49.882;8.664;2024-03-23T08:53:40;6.90;;;3.70;;
13085;SDS011;6609;49.882;8.664;2024-03-23T08:56:07;9.93;;;3.47;;
13085;SDS011;6609;49.882;8.664;2024-03-23T08:58:35;7.63;;;3.73;;
13085;SDS011;6609;49.882;8.664;2024-03-23T09:05:56;9.23;;;4.30;;
13085;SDS011;6609;49.882;8.664;2024-03-23T09:08:23;9.63;;;4.63;;
13085;SDS011;6609;49.882;8.664;2024-03-23T09:10:49;9.55;;;4.65;;
13085;SDS011;6609;49.882;8.664;2024-03-23T09:15:45;11.90;;;4.83;;
13085;SDS011;6609;49.882;8.664;2024-03-23T09:18:14;8.73;;;3.23;;
13085;SDS011;6609;49.882;8.664;2024-03-23T09:20:41;9.20;;;4.40;;
13085;SDS011;6609;49.882;8.664;2024-03-23T09:23:08;7.07;;;3.73;;
13085;SDS011;6609;49.882;8.664;2024-03-23T09:25:37;9.13;;;3.83;;
13085;SDS011;6609;49.882;8.664;2024-03-23T09:28:03;7.17;;;3.70;;
13085;SDS011;6609;49.882;8.664;2024-03-23T09:30:31;7.07;;;4.20;;
13085;SDS011;6609;49.882;8.664;2024-03-23T09:32:58;8.53;;;4.20;;
13085;SDS011;6609;49.882;8.664;2024-03-23T09:35:26;14.03;;;5.57;;
13085;SDS011;6609;49.882;8.664;2024-03-23T09:37:52;14.23;;;5.03;;
13085;SDS011;6609;49.882;8.664;2024-03-23T09:40:20;12.53;;;5.10;;
13085;SDS011;6609;49.882;8.664;2024-03-23T09:42:49;7.67;;;4.53;;
13085;SDS011;6609;49.882;8.664;2024-03-23T09:45:17;11.23;;;5.37;;
13085;SDS011;6609;49.882;8.664;2024-03-23T09:47:46;10.20;;;4.10;;
13085;SDS011;6609;49.882;8.664;2024-03-23T09:50:13;12.13;;;4.73;;
13085;SDS011;6609;49.882;8.664;2024-03-23T09:52:39;8.60;;;3.90;;
13085;SDS011;6609;49.882;8.664;2024-03-23T09:55:07;11.07;;;3.93;;
13085;SDS011;6609;49.882;8.664;2024-03-23T09:57:35;7.67;;;3.67;;
13085;SDS011;6609;49.882;8.664;2024-03-23T10:00:02;8.90;;;3.80;;
13085;SDS011;6609;49.882;8.664;2024-03-23T10:02:28;11.10;;;3.67;;
13085;SDS011;6609;49.882;8.664;2024-03-23T10:04:55;11.93;;;4.13;;
13085;SDS011;6609;49.882;8.664;2024-03-23T10:07:22;11.90;;;5.05;;
13085;SDS011;6609;49.882;8.664;2024-03-23T10:09:49;10.17;;;3.77;;
13085;SDS011;6609;49.882;8.664;2024-03-23T10:12:16;13.30;;;4.93;;
13085;SDS011;6609;49.882;8.664;2024-03-23T10:14:45;7.17;;;3.57;;
13085;SDS011;6609;49.882;8.664;2024-03-23T10:17:12;12.13;;;4.70;;
13085;SDS011;6609;49.882;8.664;2024-03-23T10:19:40;12.83;;;4.97;;
13085;SDS011;6609;49.882;8.664;2024-03-23T10:22:07;10.87;;;3.77;;
13085;SDS011;6609;49.882;8.664;2024-03-23T10:24:34;12.67;;;4.40;;
13085;SDS011;6609;49.882;8.664;2024-03-23T10:27:00;8.87;;;4.47;;
13085;SDS011;6609;49.882;8.664;2024-03-23T10:29:27;12.33;;;4.07;;
13085;SDS011;6609;49.882;8.664;2024-03-23T10:31:55;14.33;;;4.67;;
13085;SDS011;6609;49.882;8.664;2024-03-23T10:34:34;12.60;;;4.10;;
13085;SDS011;6609;49.882;8.664;2024-03-23T10:37:01;15.97;;;4.20;;
13085;SDS011;6609;49.882;8.664;2024-03-23T10:39:29;5.60;;;3.00;;
13085;SDS011;6609;49.882;8.664;2024-03-23T10:41:56;8.60;;;3.90;;
13085;SDS011;6609;49.882;8.664;2024-03-23T10:44:24;7.37;;;3.57;;
13085;SDS011;6609;49.882;8.664;2024-03-23T10:46:51;8.17;;;3.30;;
13085;SDS011;6609;49.882;8.664;2024-03-23T10:49:25;8.57;;;2.93;;
13085;SDS011;6609;49.882;8.664;2024-03-23T10:51:51;7.10;;;2.87;;
13085;SDS011;6609;49.882;8.664;2024-03-23T10:54:18;9.67;;;3.40;;
13085;SDS011;6609;49.882;8.664;2024-03-23T10:56:46;5.50;;;2.37;;
13085;SDS011;6609;49.882;8.664;2024-03-23T10:59:14;7.83;;;2.37;;
13085;SDS011;6609;49.882;8.664;2024-03-23T11:06:35;4.13;;;2.30;;
13085;SDS011;6609;49.882;8.664;2024-03-23T11:09:03;5.33;;;2.67;;
13085;SDS011;6609;49.882;8.664;2024-03-23T11:11:29;6.37;;;2.17;;
13085;SDS011;6609;49.882;8.664;2024-03-23T11:13:58;6.87;;;2.30;;
13085;SDS011;6609;49.882;8.664;2024-03-23T11:16:25;6.23;;;2.77;;
13085;SDS011;6609;49.882;8.664;2024-03-23T11:18:55;6.20;;;2.70;;
13085;SDS011;6609;49.882;8.664;2024-03-23T11:24:21;6.30;;;2.70;;
13085;SDS011;6609;49.882;8.664;2024-03-23T11:26:47;9.27;;;3.00;;
13085;SDS011;6609;49.882;8.664;2024-03-23T11:29:14;7.40;;;2.20;;
13085;SDS011;6609;49.882;8.664;2024-03-23T11:31:45;8.30;;;2.93;;
13085;SDS011;6609;49.882;8.664;2024-03-23T11:34:12;7.23;;;2.63;;
13085;SDS011;6609;49.882;8.664;2024-03-23T11:36:38;9.13;;;3.00;;
13085;SDS011;6609;49.882;8.664;2024-03-23T11:39:13;12.17;;;3.43;;
13085;SDS011;6609;49.882;8.664;2024-03-23T11:41:47;10.40;;;3.40;;
13085;SDS011;6609;49.882;8.664;2024-03-23T11:44:15;4.67;;;2.67;;
13085;SDS011;6609;49.882;8.664;2024-03-23T11:46:41;5.00;;;2.83;;
13085;SDS011;6609;49.882;8.664;2024-03-23T11:49:19;4.13;;;2.50;;
13085;SDS011;6609;49.882;8.664;2024-03-23T11:51:46;7.90;;;2.63;;
13085;SDS011;6609;49.882;8.664;2024-03-23T11:54:15;4.33;;;2.43;;
13085;SDS011;6609;49.882;8.664;2024-03-23T11:56:53;9.50;;;3.20;;
13085;SDS011;6609;49.882;8.664;2024-03-23T11:59:29;5.23;;;2.27;;
13085;SDS011;6609;49.882;8.664;2024-03-23T12:01:56;5.63;;;2.53;;
13085;SDS011;6609;49.882;8.664;2024-03-23T12:04:25;3.73;;;2.00;;
13085;SDS011;6609;49.882;8.664;2024-03-23T12:06:51;4.17;;;2.27;;
13085;SDS011;6609;49.882;8.664;2024-03-23T12:11:46;5.57;;;2.70;;
13085;SDS011;6609;49.882;8.664;2024-03-23T12:14:14;3.97;;;2.10;;
13085;SDS011;6609;49.882;8.664;2024-03-23T12:16:40;5.23;;;2.57;;
13085;SDS011;6609;49.882;8.664;2024-03-23T12:19:07;4.73;;;2.10;;
13085;SDS011;6609;49.882;8.664;2024-03-23T12:21:34;10.33;;;3.40;;
13085;SDS011;6609;49.882;8.664;2024-03-23T12:24:01;5.90;;;2.33;;
13085;SDS011;6609;49.882;8.664;2024-03-23T12:26:27;5.27;;;2.43;;
13085;SDS011;6609;49.882;8.664;2024-03-23T12:28:55;6.57;;;2.43;;
13085;SDS011;6609;49.882;8.664;2024-03-23T12:31:21;5.50;;;2.50;;
13085;SDS011;6609;49.882;8.664;2024-03-23T12:33:47;5.80;;;2.77;;
13085;SDS011;6609;49.882;8.664;2024-03-23T12:38:40;4.47;;;2.50;;
13085;SDS011;6609;49.882;8.664;2024-03-23T12:41:08;5.67;;;2.53;;
13085;SDS011;6609;49.882;8.664;2024-03-23T12:43:36;3.90;;;2.60;;
13085;SDS011;6609;49.882;8.664;2024-03-23T12:46:04;5.63;;;2.53;;
13085;SDS011;6609;49.882;8.664;2024-03-23T12:48:33;6.10;;;2.43;;
13085;SDS011;6609;49.882;8.664;2024-03-23T12:50:59;7.10;;;2.50;;
13085;SDS011;6609;49.882;8.664;2024-03-23T12:53:27;7.17;;;3.47;;
13085;SDS011;6609;49.882;8.664;2024-03-23T12:55:53;9.10;;;2.73;;
13085;SDS011;6609;49.882;8.664;2024-03-23T12:58:22;10.37;;;3.00;;
13085;SDS011;6609;49.882;8.664;2024-03-23T13:00:48;8.13;;;3.43;;
13085;SDS011;6609;49.882;8.664;2024-03-23T13:03:16;5.73;;;2.53;;
13085;SDS011;6609;49.882;8.664;2024-03-23T13:05:42;7.57;;;3.20;;
13085;SDS011;6609;49.882;8.664;2024-03-23T13:08:09;6.97;;;2.93;;
13085;SDS011;6609;49.882;8.664;2024-03-23T13:15:28;4.97;;;2.70;;
13085;SDS011;6609;49.882;8.664;2024-03-23T13:17:55;7.47;;;2.77;;
13085;SDS011;6609;49.882;8.664;2024-03-23T14:24:00;4.30;;;2.70;;
13085;SDS011;6609;49.882;8.664;2024-03-23T14:26:28;6.03;;;3.00;;
13085;SDS011;6609;49.882;8.664;2024-03-23T14:28:54;8.00;;;3.30;;
13085;SDS011;6609;49.882;8.664;2024-03-23T14:31:21;9.77;;;3.37;;
13085;SDS011;6609;49.882;8.664;2024-03-23T14:33:47;9.07;;;3.07;;
13085;SDS011;6609;49.882;8.664;2024-03-23T14:36:15;9.00;;;2.90;;
13085;SDS011;6609;49.882;8.664;2024-03-23T14:38:42;10.07;;;3.00;;
13085;SDS011;6609;49.882;8.664;2024-03-23T14:41:14;7.80;;;2.87;;
13085;SDS011;6609;49.882;8.664;2024-03-23T14:43:41;10.53;;;3.37;;
13085;SDS011;6609;49.882;8.664;2024-03-23T14:46:09;9.80;;;3.10;;
13085;SDS011;6609;49.882;8.664;2024-03-23T14:48:37;8.03;;;2.73;;
13085;SDS011;6609;49.882;8.664;2024-03-23T14:51:03;5.73;;;2.23;;
13085;SDS011;6609;49.882;8.664;2024-03-23T14:53:31;8.17;;;2.60;;
13085;SDS011;6609;49.882;8.664;2024-03-23T14:55:57;11.83;;;3.70;;
13085;SDS011;6609;49.882;8.664;2024-03-23T14:58:26;7.50;;;2.50;;
13085;SDS011;6609;49.882;8.664;2024-03-23T15:00:52;26.53;;;6.47;;
13085;SDS011;6609;49.882;8.664;2024-03-23T15:03:19;29.97;;;5.73;;
13085;SDS011;6609;49.882;8.664;2024-03-23T15:05:52;13.37;;;3.40;;
13085;SDS011;6609;49.882;8.664;2024-03-23T15:08:19;9.53;;;2.87;;
13085;SDS011;6609;49.882;8.664;2024-03-23T15:15:39;11.50;;;2.85;;
13085;SDS011;6609;49.882;8.664;2024-03-23T15:18:08;10.93;;;2.47;;
13085;SDS011;6609;49.882;8.664;2024-03-23T15:20:34;6.33;;;2.20;;
13085;SDS011;6609;49.882;8.664;2024-03-23T15:23:02;9.97;;;2.57;;
13085;SDS011;6609;49.882;8.664;2024-03-23T15:25:28;9.27;;;2.27;;
13085;SDS011;6609;49.882;8.664;2024-03-23T15:27:55;10.50;;;3.03;;
13085;SDS011;6609;49.882;8.664;2024-03-23T15:30:22;8.50;;;2.65;;
13085;SDS011;6609;49.882;8.664;2024-03-23T15:32:51;9.80;;;2.60;;
13085;SDS011;6609;49.882;8.664;2024-03-23T15:35:17;8.97;;;2.63;;
13085;SDS011;6609;49.882;8.664;2024-03-23T15:37:47;11.20;;;3.23;;
13085;SDS011;6609;49.882;8.664;2024-03-23T15:40:13;8.60;;;2.27;;
13085;SDS011;6609;49.882;8.664;2024-03-23T15:42:40;9.80;;;2.63;;
13085;SDS011;6609;49.882;8.664;2024-03-23T15:45:06;9.17;;;2.80;;
13085;SDS011;6609;49.882;8.664;2024-03-23T15:47:34;9.07;;;2.53;;
13085;SDS011;6609;49.882;8.664;2024-03-23T15:50:01;6.83;;;2.03;;
